Kezdőlap
METAR-TAF:

METAR-TAF

Repülőterek :

Xi'an, Kína

földrajzi szélesség: 34-26N, földrajzi hosszúság: 108-45E, magasság: 479 m

Jelenlegi meteorológiai megfigyelések

A jelentés 1 órával és 7 perccel ezelõtt készült, 01:00 UTC
Északkeleti szél 8 kt
Hőmérséklet 21°C
Páratartalom 49%
Légköri nyomás 1009 hPa
Látótávolság: 8000 m

METAR: ZLXY 250100Z 04004MPS 8000 NSC 21/10 Q1009 NOSIG

Idő: 10:07 (02:07 UTC)

Előrejelzés

A jelentés 6 órával és 55 perccel ezelõtt készült, 19:12 UTC
Az előrejelzés 25-én 00 óra UTC és 25-én 24 óra UTC között érvényes
Kelet-északkeleti szél 8 kt széllökések: 19 kt
Látótávolság: 3000 m
Száraz légköri homály

TAF: ZLXY 241912Z 2500/2524 06004G10MPS 3000 HZ NSC TX32/2507Z TN15/2522Z

Meteorológiai megfigyelések és előrejelzések több, mint 4000 repülőtéren (METAR és TAF jelentéseket).

A térképen piros és sárga pontok jelzik az elérhető meteorológiai állomásokat.

Mozgassa az egeret a pont fölött, hogy megjelenjen az állomás neve.

Azután kattintson az időjárási megfigyelések és előrejelzések megtekintéséhez.

A térkép megváltoztatása: kattintson a fekete keresztel jelölt zöld gombra ráközelítéshez, a vonallal jelölt zöld gombra távolításhoz, vagy a zöld nyilakra a szomszédos térképek eléréséhez.


METAR-TAF: